sensor_id;sensor_type;location;lat;lon;timestamp;pressure;altitude;pressure_sealevel;temperature;humidity
76024;BME280;64719;52.124;6.226;2022-10-31T00:00:53;102154.25;;;10.79;100.00
76024;BME280;64719;52.124;6.226;2022-10-31T00:03:20;102155.13;;;10.86;100.00
76024;BME280;64719;52.124;6.226;2022-10-31T00:05:48;102157.22;;;10.90;100.00
76024;BME280;64719;52.124;6.226;2022-10-31T00:08:16;102155.13;;;10.86;100.00
76024;BME280;64719;52.124;6.226;2022-10-31T00:10:43;102152.81;;;10.83;100.00
76024;BME280;64719;52.124;6.226;2022-10-31T00:13:11;102156.56;;;10.82;100.00
76024;BME280;64719;52.124;6.226;2022-10-31T00:15:39;102151.19;;;10.88;100.00
76024;BME280;64719;52.124;6.226;2022-10-31T00:18:09;102160.59;;;10.92;100.00
76024;BME280;64719;52.124;6.226;2022-10-31T00:20:36;102157.88;;;10.92;100.00
76024;BME280;64719;52.124;6.226;2022-10-31T00:23:03;102158.03;;;10.84;100.00
76024;BME280;64719;52.124;6.226;2022-10-31T00:25:33;102159.09;;;10.83;100.00
76024;BME280;64719;52.124;6.226;2022-10-31T00:28:00;102168.28;;;10.82;100.00
76024;BME280;64719;52.124;6.226;2022-10-31T00:30:26;102163.88;;;10.81;100.00
76024;BME280;64719;52.124;6.226;2022-10-31T00:32:53;102168.22;;;10.76;100.00
76024;BME280;64719;52.124;6.226;2022-10-31T00:35:21;102168.97;;;10.57;100.00
76024;BME280;64719;52.124;6.226;2022-10-31T00:37:47;102168.97;;;10.57;100.00
76024;BME280;64719;52.124;6.226;2022-10-31T00:40:14;102172.41;;;10.44;100.00
76024;BME280;64719;52.124;6.226;2022-10-31T00:42:40;102169.16;;;10.55;100.00
76024;BME280;64719;52.124;6.226;2022-10-31T00:45:08;102170.63;;;10.58;100.00
76024;BME280;64719;52.124;6.226;2022-10-31T00:47:35;102168.25;;;10.48;100.00
76024;BME280;64719;52.124;6.226;2022-10-31T00:50:01;102169.22;;;10.34;100.00
76024;BME280;64719;52.124;6.226;2022-10-31T00:52:29;102158.31;;;10.28;100.00
76024;BME280;64719;52.124;6.226;2022-10-31T00:54:56;102158.97;;;10.30;100.00
76024;BME280;64719;52.124;6.226;2022-10-31T00:57:22;102176.47;;;10.27;100.00
76024;BME280;64719;52.124;6.226;2022-10-31T00:59:49;102174.28;;;10.16;100.00
76024;BME280;64719;52.124;6.226;2022-10-31T01:02:15;102171.38;;;10.18;100.00
76024;BME280;64719;52.124;6.226;2022-10-31T01:04:42;102176.66;;;10.26;100.00
76024;BME280;64719;52.124;6.226;2022-10-31T01:07:09;102174.34;;;10.23;100.00
76024;BME280;64719;52.124;6.226;2022-10-31T01:09:38;102174.34;;;10.23;100.00
76024;BME280;64719;52.124;6.226;2022-10-31T01:12:04;102176.00;;;10.24;100.00
76024;BME280;64719;52.124;6.226;2022-10-31T01:14:31;102179.13;;;10.21;100.00
76024;BME280;64719;52.124;6.226;2022-10-31T01:16:57;102186.31;;;10.28;100.00
76024;BME280;64719;52.124;6.226;2022-10-31T01:19:24;102171.50;;;10.31;100.00
76024;BME280;64719;52.124;6.226;2022-10-31T01:21:53;102180.41;;;10.25;100.00
76024;BME280;64719;52.124;6.226;2022-10-31T01:24:20;102180.06;;;10.07;100.00
76024;BME280;64719;52.124;6.226;2022-10-31T01:26:48;102178.53;;;9.83;100.00
76024;BME280;64719;52.124;6.226;2022-10-31T01:29:15;102175.72;;;9.91;100.00
76024;BME280;64719;52.124;6.226;2022-10-31T01:31:41;102175.13;;;9.75;100.00
76024;BME280;64719;52.124;6.226;2022-10-31T01:34:12;102168.47;;;9.77;100.00
76024;BME280;64719;52.124;6.226;2022-10-31T01:36:40;102164.19;;;9.62;100.00
76024;BME280;64719;52.124;6.226;2022-10-31T01:39:08;102170.56;;;9.75;100.00
76024;BME280;64719;52.124;6.226;2022-10-31T01:41:35;102169.53;;;9.76;100.00
76024;BME280;64719;52.124;6.226;2022-10-31T01:47:05;102179.19;;;9.64;100.00
76024;BME280;64719;52.124;6.226;2022-10-31T01:49:37;102187.13;;;9.66;100.00
76024;BME280;64719;52.124;6.226;2022-10-31T01:52:10;102187.22;;;9.72;100.00
76024;BME280;64719;52.124;6.226;2022-10-31T01:54:41;102185.59;;;9.78;100.00
76024;BME280;64719;52.124;6.226;2022-10-31T01:57:12;102180.03;;;9.65;100.00
76024;BME280;64719;52.124;6.226;2022-10-31T01:59:42;102176.41;;;9.79;100.00
76024;BME280;64719;52.124;6.226;2022-10-31T02:02:11;102175.06;;;9.89;100.00
76024;BME280;64719;52.124;6.226;2022-10-31T02:04:39;102172.88;;;9.99;100.00
76024;BME280;64719;52.124;6.226;2022-10-31T02:07:08;102164.66;;;10.14;100.00
76024;BME280;64719;52.124;6.226;2022-10-31T02:09:37;102159.53;;;10.04;100.00
76024;BME280;64719;52.124;6.226;2022-10-31T02:12:04;102163.63;;;9.94;100.00
76024;BME280;64719;52.124;6.226;2022-10-31T02:14:31;102166.16;;;9.74;100.00
76024;BME280;64719;52.124;6.226;2022-10-31T02:16:59;102166.81;;;9.76;100.00
76024;BME280;64719;52.124;6.226;2022-10-31T02:19:32;102165.44;;;9.66;100.00
76024;BME280;64719;52.124;6.226;2022-10-31T02:22:06;102166.34;;;9.73;100.00
76024;BME280;64719;52.124;6.226;2022-10-31T02:24:52;102176.94;;;9.68;100.00
76024;BME280;64719;52.124;6.226;2022-10-31T02:27:45;102170.88;;;9.66;100.00
76024;BME280;64719;52.124;6.226;2022-10-31T02:30:18;102173.38;;;9.67;100.00
76024;BME280;64719;52.124;6.226;2022-10-31T02:32:54;102167.97;;;9.67;100.00
76024;BME280;64719;52.124;6.226;2022-10-31T02:35:40;102176.41;;;9.79;100.00
76024;BME280;64719;52.124;6.226;2022-10-31T02:38:19;102168.81;;;9.89;100.00
76024;BME280;64719;52.124;6.226;2022-10-31T02:40:56;102173.00;;;9.91;100.00
76024;BME280;64719;52.124;6.226;2022-10-31T02:43:28;102174.53;;;10.00;100.00
76024;BME280;64719;52.124;6.226;2022-10-31T02:46:03;102174.06;;;9.97;100.00
76024;BME280;64719;52.124;6.226;2022-10-31T02:48:33;102179.84;;;9.87;100.00
76024;BME280;64719;52.124;6.226;2022-10-31T02:51:03;102179.59;;;9.82;100.00
76024;BME280;64719;52.124;6.226;2022-10-31T02:53:32;102173.28;;;9.75;100.00
76024;BME280;64719;52.124;6.226;2022-10-31T02:56:02;102179.91;;;9.73;100.00
76024;BME280;64719;52.124;6.226;2022-10-31T02:58:33;102176.94;;;9.68;100.00
76024;BME280;64719;52.124;6.226;2022-10-31T03:01:33;102176.03;;;9.61;100.00
76024;BME280;64719;52.124;6.226;2022-10-31T03:04:23;102175.22;;;9.81;100.00
76024;BME280;64719;52.124;6.226;2022-10-31T03:07:01;102166.31;;;9.66;100.00
76024;BME280;64719;52.124;6.226;2022-10-31T03:09:36;102170.78;;;9.80;100.00
76024;BME280;64719;52.124;6.226;2022-10-31T03:12:10;102167.97;;;9.88;100.00
76024;BME280;64719;52.124;6.226;2022-10-31T03:14:41;102167.59;;;9.70;100.00
76024;BME280;64719;52.124;6.226;2022-10-31T03:17:12;102169.63;;;9.68;100.00
76024;BME280;64719;52.124;6.226;2022-10-31T03:19:45;102158.88;;;9.75;100.00
76024;BME280;64719;52.124;6.226;2022-10-31T03:22:16;102164.69;;;9.72;100.00
76024;BME280;64719;52.124;6.226;2022-10-31T03:24:44;102167.38;;;9.72;100.00
76024;BME280;64719;52.124;6.226;2022-10-31T03:27:16;102168.75;;;9.61;100.00
76024;BME280;64719;52.124;6.226;2022-10-31T03:29:45;102160.28;;;9.50;100.00
76024;BME280;64719;52.124;6.226;2022-10-31T03:32:16;102168.72;;;9.40;100.00
76024;BME280;64719;52.124;6.226;2022-10-31T03:34:46;102164.22;;;9.11;100.00
76024;BME280;64719;52.124;6.226;2022-10-31T03:37:16;102162.19;;;9.13;100.00
76024;BME280;64719;52.124;6.226;2022-10-31T03:39:46;102160.53;;;8.98;100.00
76024;BME280;64719;52.124;6.226;2022-10-31T03:42:15;102164.25;;;8.82;100.00
76024;BME280;64719;52.124;6.226;2022-10-31T03:44:42;102159.94;;;8.88;100.00
76024;BME280;64719;52.124;6.226;2022-10-31T03:47:10;102164.81;;;8.78;100.00
76024;BME280;64719;52.124;6.226;2022-10-31T03:49:37;102167.44;;;8.86;100.00
76024;BME280;64719;52.124;6.226;2022-10-31T03:52:13;102166.31;;;8.80;100.00
76024;BME280;64719;52.124;6.226;2022-10-31T03:54:48;102168.56;;;8.62;100.00
76024;BME280;64719;52.124;6.226;2022-10-31T03:57:22;102169.59;;;8.47;100.00
76024;BME280;64719;52.124;6.226;2022-10-31T03:59:53;102172.28;;;8.47;100.00
76024;BME280;64719;52.124;6.226;2022-10-31T04:02:26;102170.78;;;8.44;100.00
76024;BME280;64719;52.124;6.226;2022-10-31T04:04:55;102176.19;;;8.44;100.00
76024;BME280;64719;52.124;6.226;2022-10-31T04:07:27;102180.03;;;8.50;100.00
76024;BME280;64719;52.124;6.226;2022-10-31T04:09:55;102173.97;;;8.48;100.00
76024;BME280;64719;52.124;6.226;2022-10-31T04:12:24;102181.72;;;8.36;100.00
76024;BME280;64719;52.124;6.226;2022-10-31T04:14:52;102177.22;;;8.29;100.00
76024;BME280;64719;52.124;6.226;2022-10-31T04:17:22;102176.78;;;8.17;100.00
76024;BME280;64719;52.124;6.226;2022-10-31T04:19:49;102175.81;;;8.33;100.00
76024;BME280;64719;52.124;6.226;2022-10-31T04:22:16;102174.22;;;8.24;100.00
76024;BME280;64719;52.124;6.226;2022-10-31T04:24:43;102175.34;;;8.29;100.00
76024;BME280;64719;52.124;6.226;2022-10-31T04:27:10;102177.13;;;8.37;100.00
76024;BME280;64719;52.124;6.226;2022-10-31T04:29:37;102182.84;;;8.19;100.00
76024;BME280;64719;52.124;6.226;2022-10-31T04:32:04;102174.59;;;7.98;100.00
76024;BME280;64719;52.124;6.226;2022-10-31T04:34:30;102174.03;;;8.25;100.00
76024;BME280;64719;52.124;6.226;2022-10-31T04:36:57;102179.22;;;8.12;100.00
76024;BME280;64719;52.124;6.226;2022-10-31T04:39:23;102175.00;;;8.10;100.00
76024;BME280;64719;52.124;6.226;2022-10-31T04:41:51;102173.84;;;7.90;100.00
76024;BME280;64719;52.124;6.226;2022-10-31T04:44:18;102175.53;;;8.05;100.00
76024;BME280;64719;52.124;6.226;2022-10-31T04:46:44;102178.19;;;8.13;100.00
76024;BME280;64719;52.124;6.226;2022-10-31T04:49:11;102175.53;;;8.05;100.00
76024;BME280;64719;52.124;6.226;2022-10-31T04:51:37;102170.31;;;8.04;100.00
76024;BME280;64719;52.124;6.226;2022-10-31T04:54:04;102168.06;;;7.93;100.00
76024;BME280;64719;52.124;6.226;2022-10-31T04:56:30;102181.75;;;7.91;100.00
76024;BME280;64719;52.124;6.226;2022-10-31T04:58:58;102174.56;;;7.84;100.00
76024;BME280;64719;52.124;6.226;2022-10-31T05:01:25;102183.50;;;7.84;100.00
76024;BME280;64719;52.124;6.226;2022-10-31T05:03:53;102170.50;;;8.02;100.00
76024;BME280;64719;52.124;6.226;2022-10-31T05:06:20;102170.41;;;7.96;100.00
76024;BME280;64719;52.124;6.226;2022-10-31T05:08:46;102169.38;;;7.97;100.00
76024;BME280;64719;52.124;6.226;2022-10-31T05:11:13;102166.63;;;7.82;100.00
76024;BME280;64719;52.124;6.226;2022-10-31T05:13:39;102164.00;;;7.74;100.00
76024;BME280;64719;52.124;6.226;2022-10-31T05:16:07;102165.25;;;7.86;100.00
76024;BME280;64719;52.124;6.226;2022-10-31T05:18:34;102163.03;;;7.90;100.00
76024;BME280;64719;52.124;6.226;2022-10-31T05:21:00;102163.66;;;7.92;100.00
76024;BME280;64719;52.124;6.226;2022-10-31T05:23:27;102150.69;;;7.87;100.00
76024;BME280;64719;52.124;6.226;2022-10-31T05:25:53;102150.13;;;7.77;100.00
76024;BME280;64719;52.124;6.226;2022-10-31T05:28:19;102151.72;;;7.86;100.00
76024;BME280;64719;52.124;6.226;2022-10-31T05:30:46;102156.19;;;7.79;100.00
76024;BME280;64719;52.124;6.226;2022-10-31T05:33:14;102163.09;;;7.82;100.00
76024;BME280;64719;52.124;6.226;2022-10-31T05:35:40;102161.63;;;7.94;100.00
76024;BME280;64719;52.124;6.226;2022-10-31T05:38:07;102157.06;;;7.94;100.00
76024;BME280;64719;52.124;6.226;2022-10-31T05:40:33;102151.72;;;7.86;100.00
76024;BME280;64719;52.124;6.226;2022-10-31T05:43:00;102154.91;;;7.90;100.00
76024;BME280;64719;52.124;6.226;2022-10-31T05:45:26;102146.22;;;8.17;100.00
76024;BME280;64719;52.124;6.226;2022-10-31T05:47:54;102145.06;;;8.11;100.00
76024;BME280;64719;52.124;6.226;2022-10-31T05:50:24;102142.22;;;7.90;100.00
76024;BME280;64719;52.124;6.226;2022-10-31T05:52:55;102148.00;;;7.87;100.00
76024;BME280;64719;52.124;6.226;2022-10-31T05:55:22;102142.69;;;7.79;100.00
76024;BME280;64719;52.124;6.226;2022-10-31T05:57:48;102141.22;;;7.91;100.00
76024;BME280;64719;52.124;6.226;2022-10-31T06:00:16;102143.66;;;8.01;100.00
76024;BME280;64719;52.124;6.226;2022-10-31T06:02:43;102146.25;;;7.94;100.00
76024;BME280;64719;52.124;6.226;2022-10-31T06:05:10;102142.53;;;7.95;100.00
76024;BME280;64719;52.124;6.226;2022-10-31T06:07:38;102150.16;;;7.92;100.00
76024;BME280;64719;52.124;6.226;2022-10-31T06:10:06;102144.75;;;7.92;100.00
76024;BME280;64719;52.124;6.226;2022-10-31T06:12:33;102140.91;;;7.86;100.00
76024;BME280;64719;52.124;6.226;2022-10-31T06:15:03;102145.59;;;7.92;100.00
76024;BME280;64719;52.124;6.226;2022-10-31T06:17:30;102151.84;;;7.93;100.00
76024;BME280;64719;52.124;6.226;2022-10-31T06:19:56;102140.38;;;7.91;100.00
76024;BME280;64719;52.124;6.226;2022-10-31T06:22:23;102146.50;;;7.85;100.00
76024;BME280;64719;52.124;6.226;2022-10-31T06:24:51;102152.47;;;7.80;100.00
76024;BME280;64719;52.124;6.226;2022-10-31T06:27:17;102147.09;;;7.72;100.00
76024;BME280;64719;52.124;6.226;2022-10-31T06:29:44;102139.81;;;7.81;100.00
76024;BME280;64719;52.124;6.226;2022-10-31T06:32:12;102151.69;;;7.72;100.00
76024;BME280;64719;52.124;6.226;2022-10-31T06:34:39;102150.69;;;7.87;100.00
76024;BME280;64719;52.124;6.226;2022-10-31T06:37:06;102148.22;;;8.00;100.00
76024;BME280;64719;52.124;6.226;2022-10-31T06:39:32;102154.38;;;7.94;100.00
76024;BME280;64719;52.124;6.226;2022-10-31T06:42:00;102153.91;;;8.05;100.00
76024;BME280;64719;52.124;6.226;2022-10-31T06:44:27;102154.41;;;8.09;100.00
76024;BME280;64719;52.124;6.226;2022-10-31T06:46:53;102150.38;;;8.27;100.00
76024;BME280;64719;52.124;6.226;2022-10-31T06:49:20;102153.63;;;8.37;100.00
76024;BME280;64719;52.124;6.226;2022-10-31T06:51:47;102161.38;;;8.55;100.00
76024;BME280;64719;52.124;6.226;2022-10-31T06:54:14;102158.19;;;8.66;100.00
76024;BME280;64719;52.124;6.226;2022-10-31T06:56:40;102154.75;;;8.72;100.00
76024;BME280;64719;52.124;6.226;2022-10-31T06:59:08;102164.16;;;8.76;100.00
76024;BME280;64719;52.124;6.226;2022-10-31T07:01:34;102171.06;;;8.93;100.00
76024;BME280;64719;52.124;6.226;2022-10-31T07:04:01;102168.16;;;8.94;100.00
76024;BME280;64719;52.124;6.226;2022-10-31T07:06:27;102162.84;;;9.01;100.00
76024;BME280;64719;52.124;6.226;2022-10-31T07:08:54;102170.94;;;9.15;100.00
76024;BME280;64719;52.124;6.226;2022-10-31T07:11:20;102173.53;;;9.23;100.00
76024;BME280;64719;52.124;6.226;2022-10-31T07:13:47;102167.75;;;9.26;100.00
76024;BME280;64719;52.124;6.226;2022-10-31T07:16:15;102168.63;;;9.33;100.00
76024;BME280;64719;52.124;6.226;2022-10-31T07:18:41;102171.94;;;9.50;100.00
76024;BME280;64719;52.124;6.226;2022-10-31T07:21:08;102171.25;;;9.63;100.00
76024;BME280;64719;52.124;6.226;2022-10-31T07:23:34;102164.94;;;9.77;100.00
76024;BME280;64719;52.124;6.226;2022-10-31T07:26:01;102166.13;;;9.95;100.00
76024;BME280;64719;52.124;6.226;2022-10-31T07:28:27;102174.34;;;10.23;99.80
76024;BME280;64719;52.124;6.226;2022-10-31T07:30:55;102181.28;;;10.59;97.96
76024;BME280;64719;52.124;6.226;2022-10-31T07:33:24;102173.75;;;10.95;96.42
76024;BME280;64719;52.124;6.226;2022-10-31T07:35:51;102176.78;;;11.13;95.55
76024;BME280;64719;52.124;6.226;2022-10-31T07:38:18;102181.16;;;11.68;93.55
76024;BME280;64719;52.124;6.226;2022-10-31T07:40:49;102175.75;;;12.20;92.00
76024;BME280;64719;52.124;6.226;2022-10-31T07:43:16;102178.38;;;12.79;89.06
76024;BME280;64719;52.124;6.226;2022-10-31T07:45:42;102171.69;;;13.45;87.60
76024;BME280;64719;52.124;6.226;2022-10-31T07:48:09;102168.31;;;13.74;84.65
76024;BME280;64719;52.124;6.226;2022-10-31T07:50:37;102174.78;;;14.11;83.40
76024;BME280;64719;52.124;6.226;2022-10-31T07:53:05;102166.03;;;13.71;85.14
76024;BME280;64719;52.124;6.226;2022-10-31T07:55:33;102166.63;;;14.35;85.42
76024;BME280;64719;52.124;6.226;2022-10-31T07:58:00;102161.53;;;14.14;83.14
76024;BME280;64719;52.124;6.226;2022-10-31T08:00:28;102165.34;;;14.13;83.63
76024;BME280;64719;52.124;6.226;2022-10-31T08:02:58;102170.28;;;15.97;79.48
76024;BME280;64719;52.124;6.226;2022-10-31T08:05:25;102166.50;;;18.14;71.79
76024;BME280;64719;52.124;6.226;2022-10-31T08:07:53;102166.03;;;16.93;73.79
76024;BME280;64719;52.124;6.226;2022-10-31T08:10:20;102166.59;;;18.52;69.07
76024;BME280;64719;52.124;6.226;2022-10-31T08:12:47;102168.59;;;19.86;64.18
76024;BME280;64719;52.124;6.226;2022-10-31T08:15:20;102169.34;;;21.23;63.33
76024;BME280;64719;52.124;6.226;2022-10-31T08:17:47;102178.97;;;22.32;59.73
76024;BME280;64719;52.124;6.226;2022-10-31T08:20:13;102174.19;;;22.98;58.34
76024;BME280;64719;52.124;6.226;2022-10-31T08:22:40;102174.72;;;23.64;54.04
76024;BME280;64719;52.124;6.226;2022-10-31T08:25:08;102173.00;;;23.73;52.25
76024;BME280;64719;52.124;6.226;2022-10-31T08:27:35;102170.75;;;23.80;51.07
76024;BME280;64719;52.124;6.226;2022-10-31T08:30:01;102167.25;;;22.95;53.91
76024;BME280;64719;52.124;6.226;2022-10-31T08:32:28;102181.84;;;23.31;52.32
76024;BME280;64719;52.124;6.226;2022-10-31T08:34:54;102180.84;;;24.71;51.88
76024;BME280;64719;52.124;6.226;2022-10-31T08:37:21;102195.34;;;23.42;51.18
76024;BME280;64719;52.124;6.226;2022-10-31T08:39:47;102184.28;;;20.44;61.26
76024;BME280;64719;52.124;6.226;2022-10-31T08:42:15;102182.53;;;22.78;56.55
76024;BME280;64719;52.124;6.226;2022-10-31T08:44:42;102177.00;;;22.83;55.00
76024;BME280;64719;52.124;6.226;2022-10-31T08:47:08;102184.97;;;24.12;52.61
76024;BME280;64719;52.124;6.226;2022-10-31T08:49:35;102171.41;;;26.17;46.54
76024;BME280;64719;52.124;6.226;2022-10-31T08:52:01;102166.50;;;27.68;44.63
76024;BME280;64719;52.124;6.226;2022-10-31T08:54:28;102168.56;;;26.22;45.48
76024;BME280;64719;52.124;6.226;2022-10-31T08:56:55;102168.66;;;24.96;50.53
76024;BME280;64719;52.124;6.226;2022-10-31T08:59:23;102162.94;;;23.43;52.74
76024;BME280;64719;52.124;6.226;2022-10-31T09:01:49;102163.38;;;26.94;46.66
76024;BME280;64719;52.124;6.226;2022-10-31T09:04:16;102163.25;;;27.53;43.82
76024;BME280;64719;52.124;6.226;2022-10-31T09:06:42;102153.94;;;28.98;40.53
76024;BME280;64719;52.124;6.226;2022-10-31T09:09:09;102159.63;;;29.07;39.90
76024;BME280;64719;52.124;6.226;2022-10-31T09:11:35;102162.06;;;30.07;37.90
76024;BME280;64719;52.124;6.226;2022-10-31T09:14:01;102158.56;;;28.19;40.77
76024;BME280;64719;52.124;6.226;2022-10-31T09:16:29;102150.31;;;29.37;39.34
76024;BME280;64719;52.124;6.226;2022-10-31T09:18:56;102158.25;;;31.00;35.87
76024;BME280;64719;52.124;6.226;2022-10-31T09:21:22;102157.50;;;32.11;33.78
76024;BME280;64719;52.124;6.226;2022-10-31T09:23:49;102158.75;;;31.60;35.01
76024;BME280;64719;52.124;6.226;2022-10-31T09:26:15;102145.06;;;27.91;39.83
76024;BME280;64719;52.124;6.226;2022-10-31T09:28:42;102146.72;;;27.92;39.43
76024;BME280;64719;52.124;6.226;2022-10-31T09:31:10;102141.22;;;25.74;44.77
76024;BME280;64719;52.124;6.226;2022-10-31T09:33:37;102138.84;;;23.44;50.79
76024;BME280;64719;52.124;6.226;2022-10-31T09:36:04;102141.06;;;22.48;51.49
76024;BME280;64719;52.124;6.226;2022-10-31T09:38:31;102137.81;;;23.19;52.20
76024;BME280;64719;52.124;6.226;2022-10-31T09:41:06;102136.09;;;26.31;43.38
76024;BME280;64719;52.124;6.226;2022-10-31T09:43:39;102141.25;;;28.92;37.67
76024;BME280;64719;52.124;6.226;2022-10-31T09:46:13;102134.16;;;29.25;36.26
76024;BME280;64719;52.124;6.226;2022-10-31T09:48:51;102139.38;;;26.20;43.32
76024;BME280;64719;52.124;6.226;2022-10-31T09:51:22;102144.28;;;28.43;39.07
76024;BME280;64719;52.124;6.226;2022-10-31T09:53:52;102135.38;;;26.26;42.56
76024;BME280;64719;52.124;6.226;2022-10-31T09:56:21;102131.50;;;23.63;47.93
76024;BME280;64719;52.124;6.226;2022-10-31T09:58:52;102109.00;;;22.22;51.23
76024;BME280;64719;52.124;6.226;2022-10-31T10:01:34;102079.44;;;21.77;52.62
76024;BME280;64719;52.124;6.226;2022-10-31T10:04:17;102063.72;;;19.98;58.84
76024;BME280;64719;52.124;6.226;2022-10-31T10:06:47;102076.91;;;19.32;61.44
76024;BME280;64719;52.124;6.226;2022-10-31T10:09:15;102106.75;;;19.45;62.06
76024;BME280;64719;52.124;6.226;2022-10-31T10:11:53;102098.22;;;19.42;62.25
76024;BME280;64719;52.124;6.226;2022-10-31T10:14:35;102104.22;;;19.39;59.55
76024;BME280;64719;52.124;6.226;2022-10-31T10:17:13;102099.13;;;18.83;61.83
76024;BME280;64719;52.124;6.226;2022-10-31T10:20:04;102089.16;;;18.22;63.43
76024;BME280;64719;52.124;6.226;2022-10-31T10:22:42;102095.41;;;17.84;65.50
76024;BME280;64719;52.124;6.226;2022-10-31T10:25:15;102085.47;;;17.50;66.94
76024;BME280;64719;52.124;6.226;2022-10-31T10:28:03;102076.44;;;17.38;68.56
76024;BME280;64719;52.124;6.226;2022-10-31T10:30:35;102085.34;;;17.73;67.49
76024;BME280;64719;52.124;6.226;2022-10-31T10:33:10;102085.50;;;18.16;67.38
76024;BME280;64719;52.124;6.226;2022-10-31T10:35:42;102073.59;;;19.62;62.97
76024;BME280;64719;52.124;6.226;2022-10-31T10:38:15;102075.66;;;20.50;59.68
76024;BME280;64719;52.124;6.226;2022-10-31T10:40:42;102077.06;;;19.79;60.61
76024;BME280;64719;52.124;6.226;2022-10-31T10:43:20;102074.50;;;19.67;62.03
76024;BME280;64719;52.124;6.226;2022-10-31T10:45:53;102061.50;;;19.36;62.57
76024;BME280;64719;52.124;6.226;2022-10-31T10:48:45;102041.47;;;18.71;64.80
76024;BME280;64719;52.124;6.226;2022-10-31T10:51:23;102055.69;;;18.63;66.17
76024;BME280;64719;52.124;6.226;2022-10-31T10:54:02;102054.66;;;18.48;66.52
76024;BME280;64719;52.124;6.226;2022-10-31T10:56:50;102058.31;;;18.75;66.13
76024;BME280;64719;52.124;6.226;2022-10-31T10:59:21;102051.81;;;19.60;64.16
76024;BME280;64719;52.124;6.226;2022-10-31T11:01:48;102053.72;;;19.55;63.48
76024;BME280;64719;52.124;6.226;2022-10-31T11:04:25;102033.53;;;19.23;64.25
76024;BME280;64719;52.124;6.226;2022-10-31T11:07:02;102038.56;;;19.52;63.65
76024;BME280;64719;52.124;6.226;2022-10-31T11:09:29;102035.97;;;19.19;65.29
76024;BME280;64719;52.124;6.226;2022-10-31T11:11:56;102039.13;;;19.28;65.07
76024;BME280;64719;52.124;6.226;2022-10-31T11:14:24;102033.47;;;19.39;65.78
76024;BME280;64719;52.124;6.226;2022-10-31T11:16:54;102026.56;;;19.37;64.97
76024;BME280;64719;52.124;6.226;2022-10-31T11:19:22;102008.91;;;19.64;64.80
76024;BME280;64719;52.124;6.226;2022-10-31T11:21:50;101999.88;;;19.69;64.24
76024;BME280;64719;52.124;6.226;2022-10-31T11:24:19;101996.00;;;19.12;66.19
76024;BME280;64719;52.124;6.226;2022-10-31T11:26:48;101985.31;;;19.42;65.38
76024;BME280;64719;52.124;6.226;2022-10-31T11:29:20;101975.97;;;19.79;64.89
76024;BME280;64719;52.124;6.226;2022-10-31T11:31:47;101973.19;;;20.16;64.13
76024;BME280;64719;52.124;6.226;2022-10-31T11:34:26;101967.56;;;19.59;63.82
76024;BME280;64719;52.124;6.226;2022-10-31T11:36:54;101966.44;;;19.60;64.99
76024;BME280;64719;52.124;6.226;2022-10-31T11:39:25;101961.47;;;19.52;64.82
76024;BME280;64719;52.124;6.226;2022-10-31T11:41:53;101946.91;;;20.04;64.42
76024;BME280;64719;52.124;6.226;2022-10-31T11:44:23;101941.38;;;20.50;63.01
76024;BME280;64719;52.124;6.226;2022-10-31T11:46:53;101936.47;;;20.77;62.15
76024;BME280;64719;52.124;6.226;2022-10-31T11:49:25;101925.25;;;20.17;63.81
76024;BME280;64719;52.124;6.226;2022-10-31T11:51:55;101931.94;;;19.89;64.60
76024;BME280;64719;52.124;6.226;2022-10-31T11:54:26;101934.72;;;19.21;66.12
76024;BME280;64719;52.124;6.226;2022-10-31T11:56:55;101923.22;;;18.71;67.48
76024;BME280;64719;52.124;6.226;2022-10-31T11:59:25;101925.81;;;18.56;67.94
76024;BME280;64719;52.124;6.226;2022-10-31T12:01:54;101930.91;;;18.26;68.56
76024;BME280;64719;52.124;6.226;2022-10-31T12:04:32;101921.72;;;18.59;68.25
76024;BME280;64719;52.124;6.226;2022-10-31T12:07:00;101914.72;;;18.99;66.82
76024;BME280;64719;52.124;6.226;2022-10-31T12:09:29;101904.84;;;19.30;65.99
76024;BME280;64719;52.124;6.226;2022-10-31T12:12:05;101902.78;;;19.52;65.56
76024;BME280;64719;52.124;6.226;2022-10-31T12:14:46;101897.00;;;20.57;62.92
76024;BME280;64719;52.124;6.226;2022-10-31T12:17:18;101896.56;;;20.18;62.74
76024;BME280;64719;52.124;6.226;2022-10-31T12:19:55;101907.41;;;20.40;60.93
76024;BME280;64719;52.124;6.226;2022-10-31T12:22:33;101892.91;;;21.44;57.41
76024;BME280;64719;52.124;6.226;2022-10-31T12:25:14;101887.63;;;21.78;56.10
76024;BME280;64719;52.124;6.226;2022-10-31T12:27:57;101888.25;;;21.15;57.94
76024;BME280;64719;52.124;6.226;2022-10-31T12:30:40;101877.66;;;20.52;60.04
76024;BME280;64719;52.124;6.226;2022-10-31T12:33:21;101862.13;;;20.16;61.39
76024;BME280;64719;52.124;6.226;2022-10-31T12:35:59;101855.03;;;19.36;64.56
76024;BME280;64719;52.124;6.226;2022-10-31T12:38:42;101850.94;;;19.07;66.49
76024;BME280;64719;52.124;6.226;2022-10-31T12:41:27;101844.25;;;18.98;66.50
76024;BME280;64719;52.124;6.226;2022-10-31T12:44:05;101846.03;;;18.78;67.63
76024;BME280;64719;52.124;6.226;2022-10-31T12:46:48;101843.97;;;18.63;68.08
76024;BME280;64719;52.124;6.226;2022-10-31T12:49:31;101834.28;;;18.56;68.78
76024;BME280;64719;52.124;6.226;2022-10-31T12:52:17;101826.16;;;18.44;69.34
76024;BME280;64719;52.124;6.226;2022-10-31T12:54:57;101814.94;;;18.24;69.78
76024;BME280;64719;52.124;6.226;2022-10-31T12:57:32;101810.66;;;18.33;69.46
76024;BME280;64719;52.124;6.226;2022-10-31T13:00:03;101803.41;;;18.49;69.51
76024;BME280;64719;52.124;6.226;2022-10-31T13:02:33;101793.13;;;18.66;69.20
76024;BME280;64719;52.124;6.226;2022-10-31T13:05:05;101793.06;;;18.61;69.52